Time;durP1;ratioP1;P1;durP2;ratioP2;P2;SDS_P1;SDS_P2;PMS_P1;PMS_P2;Temp;Humidity;BMP_temperature;BMP_pressure;BME280_temperature;BME280_humidity;BME280_pressure;Samples;Min_cycle;Max_cycle;Signal;HPM_P1;HPM_P2
2023/08/24 00:02:02;;;;;;;;;;;26.70;99.90;;;;;;5114446;28;19911;-71
2023/08/24 00:04:28;;;;;;;;;;;26.70;99.90;;;;;;5114077;28;19998;-68
2023/08/24 00:06:54;;;;;;;;;;;26.60;99.90;;;;;;5113982;28;19908;-71
2023/08/24 00:09:20;;;;;;;;;;;26.60;99.90;;;;;;5095783;28;19914;-69
2023/08/24 00:11:46;;;;;;;;;;;26.50;99.90;;;;;;5095684;28;19908;-69
2023/08/24 00:14:12;;;;;;;;;;;26.60;99.90;;;;;;5114013;28;20081;-69
2023/08/24 00:16:38;;;;;;;;;;;26.50;99.90;;;;;;5095535;28;19907;-69
2023/08/24 00:19:04;;;;;;;;;;;26.60;99.90;;;;;;5114065;28;20018;-69
2023/08/24 00:21:30;;;;;;;;;;;26.50;99.90;;;;;;5113805;28;19940;-69
2023/08/24 00:23:56;;;;;;;;;;;26.60;99.90;;;;;;5113796;28;19965;-69
2023/08/24 00:26:22;;;;;;;;;;;26.60;99.90;;;;;;5114358;28;19908;-69
2023/08/24 00:28:47;;;;;;;;;;;26.60;99.90;;;;;;5113989;28;19908;-69
2023/08/24 00:31:15;;;;;;;;;;;26.60;99.90;;;;;;5113931;28;19973;-69
2023/08/24 00:33:41;;;;;;;;;;;26.70;99.90;;;;;;5113886;28;19915;-69
2023/08/24 00:36:07;;;;;;;;;;;26.70;99.90;;;;;;5095138;28;19920;-70
2023/08/24 00:38:33;;;;;;;;;;;26.70;99.90;;;;;;5113717;28;19920;-70
2023/08/24 00:40:59;;;;;;;;;;;26.70;99.90;;;;;;5113920;28;20320;-70
2023/08/24 00:43:26;;;;;;;;;;;26.70;99.90;;;;;;5114046;28;20260;-70
2023/08/24 00:45:55;;;;;;;;;;;26.70;99.90;;;;;;5113969;28;19908;-70
2023/08/24 00:48:25;;;;;;;;;;;26.70;99.90;;;;;;5099624;28;20369;-70
2023/08/24 00:50:52;;;;;;;;;;;26.60;99.90;;;;;;5118209;28;20010;-69
2023/08/24 00:53:19;;;;;;;;;;;26.60;99.90;;;;;;5117994;28;19915;-70
2023/08/24 00:55:45;;;;;;;;;;;26.60;99.90;;;;;;5099446;28;19958;-70
2023/08/24 00:58:11;;;;;;;;;;;26.60;99.90;;;;;;5118012;28;19908;-72
2023/08/24 01:00:37;;;;;;;;;;;26.60;99.90;;;;;;5117796;28;20335;-70
2023/08/24 01:03:03;;;;;;;;;;;26.60;99.90;;;;;;5117701;28;19959;-71
2023/08/24 01:05:29;;;;;;;;;;;26.70;99.90;;;;;;5117635;28;19907;-70
2023/08/24 01:07:55;;;;;;;;;;;26.70;99.90;;;;;;5117568;28;19914;-70
2023/08/24 01:10:21;;;;;;;;;;;26.60;99.90;;;;;;5117800;28;20357;-70
2023/08/24 01:13:23;;;;;;;;;;;26.70;99.90;;;;;;5117716;28;19908;-70
2023/08/24 01:15:54;;;;;;;;;;;26.60;99.90;;;;;;5034753;28;20036;-70
2023/08/24 01:18:21;;;;;;;;;;;26.60;99.90;;;;;;5035277;28;19910;-72
2023/08/24 01:20:47;;;;;;;;;;;26.60;99.90;;;;;;5034338;28;19924;-70
2023/08/24 01:23:26;;;;;;;;;;;26.60;99.90;;;;;;5034685;28;19909;-70
2023/08/24 01:25:53;;;;;;;;;;;26.60;99.90;;;;;;5035039;28;19941;-69
2023/08/24 01:28:23;;;;;;;;;;;26.50;99.90;;;;;;5034474;28;19913;-70
2023/08/24 01:30:49;;;;;;;;;;;26.50;99.90;;;;;;5034942;28;19909;-69
2023/08/24 01:33:15;;;;;;;;;;;26.40;99.90;;;;;;5034369;28;19909;-70
2023/08/24 01:35:41;;;;;;;;;;;26.50;99.90;;;;;;5033971;28;19935;-69
2023/08/24 01:38:07;;;;;;;;;;;26.50;99.90;;;;;;5017637;28;19944;-70
2023/08/24 01:40:48;;;;;;;;;;;26.60;99.90;;;;;;5034238;28;19925;-70
2023/08/24 01:43:14;;;;;;;;;;;26.60;99.90;;;;;;5034729;28;20404;-70
2023/08/24 01:45:41;;;;;;;;;;;26.60;99.90;;;;;;5034214;28;19909;-70
2023/08/24 01:48:07;;;;;;;;;;;26.60;99.90;;;;;;5034503;28;20019;-70
2023/08/24 01:50:33;;;;;;;;;;;26.60;99.90;;;;;;5102734;28;19918;-70
2023/08/24 01:52:59;;;;;;;;;;;26.60;99.90;;;;;;5098335;28;19908;-70
2023/08/24 01:55:25;;;;;;;;;;;26.60;99.90;;;;;;5117148;28;19931;-70
2023/08/24 01:57:51;;;;;;;;;;;26.60;99.90;;;;;;5116092;28;19908;-69
2023/08/24 02:00:17;;;;;;;;;;;26.50;99.90;;;;;;5117002;28;19915;-69
2023/08/24 02:02:44;;;;;;;;;;;26.40;99.90;;;;;;5116772;28;19911;-70
2023/08/24 02:05:10;;;;;;;;;;;26.40;99.90;;;;;;5116396;28;19908;-69
2023/08/24 02:07:35;;;;;;;;;;;26.30;99.90;;;;;;5116636;28;19998;-70
2023/08/24 02:10:02;;;;;;;;;;;26.30;99.90;;;;;;5116375;28;19999;-70
2023/08/24 02:12:27;;;;;;;;;;;26.30;99.90;;;;;;5116332;28;19908;-69
2023/08/24 02:14:53;;;;;;;;;;;26.40;99.90;;;;;;5116354;28;19922;-70
2023/08/24 02:17:19;;;;;;;;;;;26.50;99.90;;;;;;5116767;28;20309;-70
2023/08/24 02:19:45;;;;;;;;;;;26.60;99.90;;;;;;5116404;28;20022;-70
2023/08/24 02:22:11;;;;;;;;;;;26.70;99.90;;;;;;5116032;28;19908;-70
2023/08/24 02:24:36;;;;;;;;;;;26.70;99.90;;;;;;5116115;28;19919;-70
2023/08/24 02:27:02;;;;;;;;;;;26.70;99.90;;;;;;5116539;28;20280;-70
2023/08/24 02:29:30;;;;;;;;;;;26.70;99.90;;;;;;5097691;28;19914;-69
2023/08/24 02:31:56;;;;;;;;;;;26.70;99.90;;;;;;5116030;28;19919;-69
2023/08/24 02:34:22;;;;;;;;;;;26.70;99.90;;;;;;5115701;28;19908;-69
2023/08/24 02:36:47;;;;;;;;;;;26.70;99.90;;;;;;5115579;28;19920;-70
2023/08/24 02:39:13;;;;;;;;;;;26.70;99.90;;;;;;5116285;28;19920;-70
2023/08/24 02:41:39;;;;;;;;;;;26.70;99.90;;;;;;5116043;28;20044;-70
2023/08/24 02:44:05;;;;;;;;;;;26.70;99.90;;;;;;5116002;28;19908;-70
2023/08/24 02:46:31;;;;;;;;;;;26.60;99.90;;;;;;5115728;28;19911;-70
2023/08/24 02:48:56;;;;;;;;;;;26.60;99.90;;;;;;5115955;28;19914;-70
2023/08/24 02:51:23;;;;;;;;;;;26.60;99.90;;;;;;5115470;28;19908;-70
2023/08/24 02:53:49;;;;;;;;;;;26.50;99.90;;;;;;5115699;28;20328;-70
2023/08/24 02:56:15;;;;;;;;;;;26.50;99.90;;;;;;5116040;28;19907;-69
2023/08/24 02:58:41;;;;;;;;;;;26.40;99.90;;;;;;5097096;28;20002;-71
2023/08/24 03:01:07;;;;;;;;;;;26.30;99.90;;;;;;5115405;28;19912;-70
2023/08/24 03:03:37;;;;;;;;;;;26.30;99.90;;;;;;5115343;28;20356;-70
2023/08/24 03:06:06;;;;;;;;;;;26.30;99.90;;;;;;5115184;28;19911;-69
2023/08/24 03:08:33;;;;;;;;;;;26.20;99.90;;;;;;5114797;28;20374;-70
2023/08/24 03:11:02;;;;;;;;;;;26.20;99.90;;;;;;5115083;28;19931;-70
2023/08/24 03:13:28;;;;;;;;;;;26.20;99.90;;;;;;5115680;28;19908;-71
2023/08/24 03:15:54;;;;;;;;;;;26.20;99.90;;;;;;5115076;28;20279;-70
2023/08/24 03:18:21;;;;;;;;;;;26.20;99.90;;;;;;5115283;28;19918;-70
2023/08/24 03:20:47;;;;;;;;;;;26.10;99.90;;;;;;5114859;28;19998;-70
2023/08/24 03:23:14;;;;;;;;;;;26.10;99.90;;;;;;5115115;28;19965;-70
2023/08/24 03:25:41;;;;;;;;;;;26.00;99.90;;;;;;5115405;28;19914;-71
2023/08/24 03:28:08;;;;;;;;;;;26.00;99.90;;;;;;5115204;28;20006;-71
2023/08/24 03:30:37;;;;;;;;;;;26.00;99.90;;;;;;5115114;28;20273;-70
2023/08/24 03:33:04;;;;;;;;;;;25.90;99.90;;;;;;5115085;28;19970;-71
2023/08/24 03:35:33;;;;;;;;;;;25.80;99.90;;;;;;5114428;28;19926;-71
2023/08/24 03:37:59;;;;;;;;;;;25.90;99.90;;;;;;5114619;28;19907;-69
2023/08/24 03:40:25;;;;;;;;;;;25.90;99.90;;;;;;5096374;28;19922;-70
2023/08/24 03:42:52;;;;;;;;;;;25.90;99.90;;;;;;5114670;28;19908;-70
2023/08/24 03:45:18;;;;;;;;;;;25.90;99.90;;;;;;5114780;28;19959;-69
2023/08/24 03:47:45;;;;;;;;;;;25.80;99.90;;;;;;5096150;28;19908;-71
2023/08/24 03:50:11;;;;;;;;;;;25.90;99.90;;;;;;5114467;28;19915;-71
2023/08/24 03:52:37;;;;;;;;;;;25.90;99.90;;;;;;5114208;28;19960;-69
2023/08/24 03:55:02;;;;;;;;;;;25.80;99.90;;;;;;5114630;28;19914;-71
2023/08/24 03:57:28;;;;;;;;;;;25.90;99.90;;;;;;5114619;28;19908;-71
2023/08/24 03:59:54;;;;;;;;;;;25.90;99.90;;;;;;5114187;28;19916;-69
2023/08/24 04:02:20;;;;;;;;;;;25.90;99.90;;;;;;5095932;28;19977;-70
2023/08/24 04:04:46;;;;;;;;;;;25.90;99.90;;;;;;5114212;28;19914;-70
2023/08/24 04:07:12;;;;;;;;;;;25.90;99.90;;;;;;5113971;28;19908;-70
2023/08/24 04:09:38;;;;;;;;;;;25.90;99.90;;;;;;5095865;28;19961;-71
2023/08/24 04:12:03;;;;;;;;;;;25.90;99.90;;;;;;5114554;28;19965;-69
2023/08/24 04:14:30;;;;;;;;;;;26.00;99.90;;;;;;5114043;28;19908;-70
2023/08/24 04:16:56;;;;;;;;;;;26.00;99.90;;;;;;5095773;28;19908;-69
2023/08/24 04:19:22;;;;;;;;;;;26.00;99.90;;;;;;5113991;28;19923;-70
2023/08/24 04:21:47;;;;;;;;;;;26.10;99.90;;;;;;5113794;28;19907;-70
2023/08/24 04:24:13;;;;;;;;;;;26.10;99.90;;;;;;5073389;28;19917;-70
2023/08/24 04:26:39;;;;;;;;;;;26.10;99.90;;;;;;5073787;28;19916;-70
2023/08/24 04:29:05;;;;;;;;;;;26.20;99.90;;;;;;5055344;28;19908;-70
2023/08/24 04:31:30;;;;;;;;;;;26.20;99.90;;;;;;5073326;28;20361;-70
2023/08/24 04:33:56;;;;;;;;;;;26.20;99.90;;;;;;5055308;28;19908;-70
2023/08/24 04:36:22;;;;;;;;;;;26.20;99.90;;;;;;5072992;28;20392;-70
2023/08/24 04:38:48;;;;;;;;;;;26.10;99.90;;;;;;5073199;28;19913;-71
2023/08/24 04:41:14;;;;;;;;;;;26.10;99.90;;;;;;5073243;28;20291;-71
2023/08/24 04:43:40;;;;;;;;;;;26.20;99.90;;;;;;5073159;28;19954;-70
2023/08/24 04:46:05;;;;;;;;;;;26.20;99.90;;;;;;5073473;28;20387;-69
2023/08/24 04:48:34;;;;;;;;;;;26.20;99.90;;;;;;5073188;28;20258;-70
2023/08/24 04:51:00;;;;;;;;;;;26.20;99.90;;;;;;5073042;28;19952;-69
2023/08/24 04:53:26;;;;;;;;;;;26.20;99.90;;;;;;5100315;28;20366;-69
2023/08/24 04:55:52;;;;;;;;;;;26.20;99.90;;;;;;5114112;28;19908;-69
2023/08/24 04:58:19;;;;;;;;;;;26.30;99.90;;;;;;5113351;28;19961;-70
2023/08/24 05:00:44;;;;;;;;;;;26.30;99.90;;;;;;5113595;28;19943;-70
2023/08/24 05:03:10;;;;;;;;;;;26.30;99.90;;;;;;5113542;28;20390;-70
2023/08/24 05:05:37;;;;;;;;;;;26.30;99.90;;;;;;5113829;28;19998;-70
2023/08/24 05:08:05;;;;;;;;;;;26.30;99.90;;;;;;5113750;28;19915;-70
2023/08/24 05:10:32;;;;;;;;;;;26.30;99.90;;;;;;5095078;28;19994;-71
2023/08/24 05:12:58;;;;;;;;;;;26.30;99.90;;;;;;5113918;28;20348;-70
2023/08/24 05:15:24;;;;;;;;;;;26.30;99.90;;;;;;5113349;28;20061;-70
2023/08/24 05:17:53;;;;;;;;;;;26.20;99.90;;;;;;5094915;28;19907;-70
2023/08/24 05:20:19;;;;;;;;;;;26.50;99.90;;;;;;5094794;28;19916;-70
2023/08/24 05:22:45;;;;;;;;;;;26.90;99.90;;;;;;5112898;28;20375;-70
2023/08/24 05:25:11;;;;;;;;;;;27.20;99.90;;;;;;5113646;28;19914;-70
2023/08/24 05:27:37;;;;;;;;;;;27.70;99.90;;;;;;5113108;28;19911;-70
2023/08/24 05:30:05;;;;;;;;;;;27.80;99.90;;;;;;5113121;28;20277;-71
2023/08/24 05:32:32;;;;;;;;;;;28.10;99.90;;;;;;5114443;28;19908;-70
2023/08/24 05:34:57;;;;;;;;;;;28.20;99.90;;;;;;5116684;28;19952;-70
2023/08/24 05:37:24;;;;;;;;;;;28.50;99.90;;;;;;5116548;28;20390;-70
2023/08/24 05:39:50;;;;;;;;;;;28.70;99.90;;;;;;5117011;28;19916;-71
2023/08/24 05:42:15;;;;;;;;;;;28.80;99.90;;;;;;5098315;28;19915;-70
2023/08/24 05:44:41;;;;;;;;;;;29.30;99.90;;;;;;5116677;28;20327;-70
2023/08/24 05:47:07;;;;;;;;;;;29.40;99.90;;;;;;5116547;28;19939;-69
2023/08/24 05:49:33;;;;;;;;;;;29.50;99.90;;;;;;5116503;28;20351;-70
2023/08/24 05:51:58;;;;;;;;;;;29.70;99.90;;;;;;5116385;28;19908;-70
2023/08/24 05:54:25;;;;;;;;;;;30.20;99.90;;;;;;5116636;28;19966;-70
2023/08/24 05:56:51;;;;;;;;;;;30.20;99.90;;;;;;5116297;28;20002;-70
2023/08/24 05:59:17;;;;;;;;;;;30.50;99.90;;;;;;5116450;28;20010;-70
2023/08/24 06:01:42;;;;;;;;;;;30.80;99.90;;;;;;5097752;28;20278;-70
2023/08/24 06:04:09;;;;;;;;;;;30.60;99.90;;;;;;5116882;28;20298;-69
2023/08/24 06:06:35;;;;;;;;;;;30.90;99.90;;;;;;5116062;28;20444;-70
2023/08/24 06:09:04;;;;;;;;;;;31.10;99.90;;;;;;5116657;28;19908;-70
2023/08/24 06:11:29;;;;;;;;;;;31.50;99.90;;;;;;5116092;28;19915;-70
2023/08/24 06:13:55;;;;;;;;;;;32.20;99.90;;;;;;5115923;28;19908;-70
2023/08/24 06:16:22;;;;;;;;;;;32.20;99.90;;;;;;5097595;28;20355;-70
2023/08/24 06:18:49;;;;;;;;;;;32.00;99.90;;;;;;5116088;28;19964;-70
2023/08/24 06:21:15;;;;;;;;;;;31.60;99.90;;;;;;5115722;28;19990;-70
2023/08/24 06:23:41;;;;;;;;;;;32.20;99.90;;;;;;5115861;28;19907;-70
2023/08/24 06:26:07;;;;;;;;;;;33.00;99.90;;;;;;5116055;28;19976;-71
2023/08/24 06:28:33;;;;;;;;;;;34.00;99.90;;;;;;5115728;28;20006;-71
2023/08/24 06:31:00;;;;;;;;;;;34.30;99.90;;;;;;5115752;28;20007;-70
2023/08/24 06:33:31;;;;;;;;;;;34.40;99.90;;;;;;5115994;28;19941;-70
2023/08/24 06:35:57;;;;;;;;;;;34.50;99.90;;;;;;5115236;28;20395;-70
2023/08/24 06:38:23;;;;;;;;;;;34.00;99.90;;;;;;5115391;28;19907;-71
2023/08/24 06:40:49;;;;;;;;;;;33.60;99.90;;;;;;5115532;28;20321;-71
2023/08/24 06:43:15;;;;;;;;;;;34.20;99.90;;;;;;5115455;28;19908;-70
2023/08/24 06:45:41;;;;;;;;;;;34.60;99.90;;;;;;5115499;28;19915;-72
2023/08/24 06:48:07;;;;;;;;;;;35.00;99.90;;;;;;5115559;28;19914;-71
2023/08/24 06:50:33;;;;;;;;;;;35.50;99.40;;;;;;5096855;28;19908;-70
2023/08/24 06:52:59;;;;;;;;;;;35.40;99.10;;;;;;5096940;28;19907;-70
2023/08/24 06:55:27;;;;;;;;;;;35.60;99.10;;;;;;5096890;28;19908;-70
2023/08/24 06:57:53;;;;;;;;;;;35.50;98.90;;;;;;5096844;28;19908;-71
2023/08/24 07:00:19;;;;;;;;;;;35.40;98.90;;;;;;5096785;28;19985;-71
2023/08/24 07:02:48;;;;;;;;;;;35.80;98.40;;;;;;5114999;28;19947;-70
2023/08/24 07:05:14;;;;;;;;;;;35.60;98.20;;;;;;5115303;28;20301;-71
2023/08/24 07:07:44;;;;;;;;;;;35.30;97.90;;;;;;5114825;28;19908;-69
2023/08/24 07:10:10;;;;;;;;;;;35.80;98.00;;;;;;5114920;28;19907;-70
2023/08/24 07:12:36;;;;;;;;;;;36.00;97.50;;;;;;5115311;28;20312;-70
2023/08/24 07:15:02;;;;;;;;;;;36.10;97.40;;;;;;5115138;28;20372;-72
2023/08/24 07:17:28;;;;;;;;;;;36.30;97.00;;;;;;5114750;28;19937;-72
2023/08/24 07:19:53;;;;;;;;;;;36.50;97.10;;;;;;5115183;28;20071;-70
2023/08/24 07:22:19;;;;;;;;;;;36.40;97.20;;;;;;5114441;28;19908;-70
2023/08/24 07:24:45;;;;;;;;;;;36.60;95.70;;;;;;5114706;28;19960;-70
2023/08/24 07:27:11;;;;;;;;;;;36.60;96.80;;;;;;5114401;28;19968;-70
2023/08/24 07:29:37;;;;;;;;;;;37.00;96.50;;;;;;5114428;28;19907;-70
2023/08/24 07:32:03;;;;;;;;;;;36.90;96.50;;;;;;5114411;28;19907;-71
2023/08/24 07:34:29;;;;;;;;;;;37.00;96.30;;;;;;5114331;28;19912;-69
2023/08/24 07:36:55;;;;;;;;;;;35.90;95.60;;;;;;5114378;28;20275;-70
2023/08/24 07:39:21;;;;;;;;;;;35.60;96.30;;;;;;5114553;28;19949;-71
2023/08/24 07:41:47;;;;;;;;;;;35.90;96.10;;;;;;5114240;28;20386;-71
2023/08/24 07:44:15;;;;;;;;;;;35.50;96.20;;;;;;5095443;28;20558;-70
2023/08/24 07:46:41;;;;;;;;;;;35.40;96.40;;;;;;5114331;28;19912;-71
2023/08/24 07:49:07;;;;;;;;;;;35.60;96.40;;;;;;5114233;28;20382;-72
2023/08/24 07:51:33;;;;;;;;;;;35.60;95.20;;;;;;5114090;28;19907;-71
2023/08/24 07:54:00;;;;;;;;;;;35.70;94.80;;;;;;5114050;28;19953;-71
2023/08/24 07:56:25;;;;;;;;;;;36.00;94.50;;;;;;5113948;28;19961;-71
2023/08/24 07:58:51;;;;;;;;;;;36.30;94.90;;;;;;5113868;28;19915;-71
2023/08/24 08:01:18;;;;;;;;;;;36.50;95.30;;;;;;5113968;28;19911;-70
2023/08/24 08:03:43;;;;;;;;;;;37.00;95.50;;;;;;5113764;28;19908;-71
2023/08/24 08:06:09;;;;;;;;;;;37.30;95.50;;;;;;5113503;28;19915;-71
2023/08/24 08:08:35;;;;;;;;;;;37.50;95.00;;;;;;5114169;28;20248;-69
2023/08/24 08:11:02;;;;;;;;;;;37.70;94.70;;;;;;5113688;28;19908;-71
2023/08/24 08:13:29;;;;;;;;;;;37.60;94.90;;;;;;5095438;28;20011;-71
2023/08/24 08:16:03;;;;;;;;;;;37.30;94.70;;;;;;5095545;28;20015;-72
2023/08/24 08:18:29;;;;;;;;;;;37.20;95.10;;;;;;5095325;28;20363;-71
2023/08/24 08:20:54;;;;;;;;;;;37.50;94.70;;;;;;5113556;28;19916;-72
2023/08/24 08:23:20;;;;;;;;;;;37.50;95.30;;;;;;5113688;28;19939;-72
2023/08/24 08:25:47;;;;;;;;;;;37.50;95.50;;;;;;5113957;28;20276;-72
2023/08/24 08:28:12;;;;;;;;;;;37.60;95.10;;;;;;5113278;28;20352;-73
2023/08/24 08:30:38;;;;;;;;;;;37.70;94.80;;;;;;5113908;28;19908;-71
2023/08/24 08:33:04;;;;;;;;;;;37.90;94.80;;;;;;5113557;28;19957;-71
2023/08/24 08:35:31;;;;;;;;;;;37.60;95.00;;;;;;5113604;28;19920;-71
2023/08/24 08:37:58;;;;;;;;;;;37.70;95.10;;;;;;5113400;28;19916;-72
2023/08/24 08:40:28;;;;;;;;;;;37.60;95.40;;;;;;5094959;28;19920;-71
2023/08/24 08:42:56;;;;;;;;;;;37.40;94.70;;;;;;5113140;28;19915;-70
2023/08/24 08:45:24;;;;;;;;;;;37.40;93.90;;;;;;5113390;28;19912;-70
2023/08/24 08:47:50;;;;;;;;;;;37.40;95.80;;;;;;5113351;28;20347;-73
2023/08/24 08:50:17;;;;;;;;;;;37.20;96.70;;;;;;5113760;28;20026;-73
2023/08/24 08:52:42;;;;;;;;;;;37.60;97.20;;;;;;5112824;28;19912;-73
2023/08/24 08:55:10;;;;;;;;;;;37.50;97.20;;;;;;5113368;28;20259;-70
2023/08/24 08:57:37;;;;;;;;;;;37.30;97.40;;;;;;5113372;28;19915;-71
2023/08/24 09:00:03;;;;;;;;;;;37.50;97.20;;;;;;5113313;28;19991;-73
2023/08/24 09:02:30;;;;;;;;;;;37.50;97.30;;;;;;5113149;28;19907;-69
2023/08/24 09:04:56;;;;;;;;;;;37.70;96.70;;;;;;5113364;28;19990;-70
2023/08/24 09:07:23;;;;;;;;;;;37.10;96.70;;;;;;5114224;28;19908;-71
2023/08/24 09:09:50;;;;;;;;;;;37.20;96.70;;;;;;5117429;28;19943;-71
2023/08/24 09:12:16;;;;;;;;;;;37.20;96.70;;;;;;5098949;28;19914;-73
2023/08/24 09:14:42;;;;;;;;;;;37.20;96.90;;;;;;5098827;28;20010;-71
2023/08/24 09:17:08;;;;;;;;;;;37.30;96.90;;;;;;5117599;28;20352;-71
2023/08/24 09:19:35;;;;;;;;;;;37.10;96.10;;;;;;5117102;28;19941;-72
2023/08/24 09:22:02;;;;;;;;;;;37.20;95.80;;;;;;5116976;28;19908;-70
2023/08/24 09:24:34;;;;;;;;;;;37.10;95.50;;;;;;5117163;28;19980;-71
2023/08/24 09:27:00;;;;;;;;;;;36.90;95.20;;;;;;5117188;28;19915;-70
2023/08/24 09:29:26;;;;;;;;;;;36.30;94.70;;;;;;5098563;28;19907;-69
2023/08/24 09:31:52;;;;;;;;;;;36.20;93.50;;;;;;5116729;28;19908;-70
2023/08/24 09:34:26;;;;;;;;;;;36.20;94.60;;;;;;5116545;28;20374;-70
2023/08/24 09:36:52;;;;;;;;;;;35.80;94.30;;;;;;5116822;28;19916;-70
2023/08/24 09:39:19;;;;;;;;;;;36.00;94.30;;;;;;5098283;28;20279;-71
2023/08/24 09:41:46;;;;;;;;;;;36.00;94.40;;;;;;5116933;28;20422;-71
2023/08/24 09:44:12;;;;;;;;;;;35.90;93.80;;;;;;5116664;28;20378;-71
2023/08/24 09:46:39;;;;;;;;;;;36.10;94.30;;;;;;5116851;28;19908;-70
2023/08/24 09:49:06;;;;;;;;;;;36.20;94.20;;;;;;5116376;28;20011;-72
2023/08/24 09:51:33;;;;;;;;;;;36.20;94.20;;;;;;5097901;28;20364;-70
2023/08/24 09:54:01;;;;;;;;;;;36.00;94.10;;;;;;5098067;28;19969;-70
2023/08/24 09:56:28;;;;;;;;;;;35.90;95.20;;;;;;5096505;28;19934;-71
2023/08/24 09:58:54;;;;;;;;;;;35.60;96.30;;;;;;5095900;28;20334;-71
2023/08/24 10:01:20;;;;;;;;;;;35.80;95.70;;;;;;5096352;28;19994;-70
2023/08/24 10:03:47;;;;;;;;;;;36.00;95.70;;;;;;5077811;28;19935;-70
2023/08/24 10:06:13;;;;;;;;;;;35.50;95.80;;;;;;5095883;28;19908;-70
2023/08/24 10:08:43;;;;;;;;;;;35.30;96.20;;;;;;5095957;28;20356;-70
2023/08/24 10:11:10;;;;;;;;;;;35.30;96.30;;;;;;5095687;28;20065;-70
2023/08/24 10:13:53;;;;;;;;;;;34.90;96.60;;;;;;5095645;28;19908;-72
2023/08/24 10:16:19;;;;;;;;;;;35.30;95.90;;;;;;5096540;28;20228;-71
2023/08/24 10:18:47;;;;;;;;;;;35.30;96.10;;;;;;5095291;28;19993;-70
2023/08/24 10:21:13;;;;;;;;;;;35.40;95.90;;;;;;5095435;28;19912;-72
2023/08/24 10:23:39;;;;;;;;;;;35.40;95.40;;;;;;5111026;28;19991;-70
2023/08/24 10:26:06;;;;;;;;;;;35.10;95.80;;;;;;5115730;28;20061;-70
2023/08/24 10:28:33;;;;;;;;;;;35.00;96.10;;;;;;5097573;28;19908;-70
2023/08/24 10:30:59;;;;;;;;;;;35.10;95.90;;;;;;5116124;28;20379;-71
2023/08/24 10:33:26;;;;;;;;;;;35.30;95.40;;;;;;5097486;28;19915;-70
2023/08/24 10:35:52;;;;;;;;;;;35.30;94.80;;;;;;5115340;28;19927;-70
2023/08/24 10:38:25;;;;;;;;;;;35.20;95.80;;;;;;5115419;28;19998;-70
2023/08/24 10:40:51;;;;;;;;;;;35.50;95.30;;;;;;5115504;28;19916;-71
2023/08/24 10:43:17;;;;;;;;;;;35.40;94.40;;;;;;5097091;28;19916;-71
2023/08/24 10:45:59;;;;;;;;;;;35.40;94.70;;;;;;5115715;28;20283;-71
2023/08/24 10:48:29;;;;;;;;;;;35.30;94.90;;;;;;5115426;28;19915;-71
2023/08/24 10:51:13;;;;;;;;;;;35.50;94.90;;;;;;5115285;28;19964;-71
2023/08/24 10:53:40;;;;;;;;;;;35.80;95.00;;;;;;5115289;28;19908;-71
2023/08/24 10:56:13;;;;;;;;;;;35.70;94.40;;;;;;5115572;28;19953;-71
2023/08/24 10:58:39;;;;;;;;;;;35.60;93.70;;;;;;5096819;28;19908;-70
2023/08/24 11:01:05;;;;;;;;;;;35.30;93.80;;;;;;5115773;28;19952;-70
2023/08/24 11:03:34;;;;;;;;;;;35.40;94.30;;;;;;5096579;28;19945;-70
2023/08/24 11:06:00;;;;;;;;;;;35.30;94.50;;;;;;5114822;28;20343;-70
2023/08/24 11:08:45;;;;;;;;;;;35.50;93.80;;;;;;5096701;28;19908;-70
2023/08/24 11:11:20;;;;;;;;;;;35.40;93.70;;;;;;5115035;28;20314;-70
2023/08/24 11:14:04;;;;;;;;;;;35.30;93.80;;;;;;5115217;28;19907;-70
2023/08/24 11:16:40;;;;;;;;;;;35.40;93.50;;;;;;5114924;28;20058;-70
2023/08/24 11:19:07;;;;;;;;;;;35.70;93.40;;;;;;5114610;28;19912;-70
2023/08/24 11:21:33;;;;;;;;;;;35.70;93.30;;;;;;5114764;28;19912;-70
2023/08/24 11:24:00;;;;;;;;;;;35.70;92.90;;;;;;5114749;28;19907;-71
2023/08/24 11:26:26;;;;;;;;;;;35.70;93.30;;;;;;5096342;28;19934;-73
2023/08/24 11:28:57;;;;;;;;;;;35.70;93.20;;;;;;5114634;28;20019;-72
2023/08/24 11:31:23;;;;;;;;;;;36.00;93.10;;;;;;5113778;28;20003;-71
2023/08/24 11:33:54;;;;;;;;;;;36.10;92.80;;;;;;5096198;28;19915;-71
2023/08/24 11:36:20;;;;;;;;;;;35.90;93.20;;;;;;5114183;28;19919;-71
2023/08/24 11:38:47;;;;;;;;;;;35.90;93.40;;;;;;5114208;28;19908;-72
2023/08/24 11:41:17;;;;;;;;;;;35.90;92.90;;;;;;5096134;28;19908;-70
2023/08/24 11:43:52;;;;;;;;;;;35.80;93.20;;;;;;5114551;28;19915;-70
2023/08/24 11:46:18;;;;;;;;;;;35.90;93.40;;;;;;5114210;28;19915;-70
2023/08/24 11:48:45;;;;;;;;;;;36.00;93.50;;;;;;5114475;28;19908;-70
2023/08/24 11:51:12;;;;;;;;;;;35.80;93.40;;;;;;5114223;28;19952;-70
2023/08/24 11:53:45;;;;;;;;;;;35.80;93.70;;;;;;5095948;28;19907;-70
2023/08/24 11:56:12;;;;;;;;;;;35.40;94.00;;;;;;5114354;28;19955;-70
2023/08/24 11:58:41;;;;;;;;;;;35.80;94.00;;;;;;5113932;28;19908;-70
2023/08/24 12:01:08;;;;;;;;;;;35.40;94.50;;;;;;5114280;28;20368;-70
2023/08/24 12:03:35;;;;;;;;;;;35.50;94.80;;;;;;5113907;28;19912;-71
2023/08/24 12:06:01;;;;;;;;;;;35.50;94.40;;;;;;5114030;28;20009;-70
2023/08/24 12:08:27;;;;;;;;;;;35.70;94.40;;;;;;5113919;28;19907;-70
2023/08/24 12:10:53;;;;;;;;;;;35.50;94.70;;;;;;5113562;28;19908;-71
2023/08/24 12:13:19;;;;;;;;;;;35.70;94.50;;;;;;5113873;28;19907;-70
2023/08/24 12:15:47;;;;;;;;;;;35.70;94.30;;;;;;5114149;28;20384;-70
2023/08/24 12:18:13;;;;;;;;;;;35.70;94.10;;;;;;5095406;28;20260;-70
2023/08/24 12:20:43;;;;;;;;;;;35.70;94.50;;;;;;5114221;28;20058;-70
2023/08/24 12:23:10;;;;;;;;;;;35.90;94.10;;;;;;5113575;28;19915;-70
2023/08/24 12:25:38;;;;;;;;;;;35.90;94.10;;;;;;5095536;28;19946;-71
2023/08/24 12:28:14;;;;;;;;;;;35.80;94.30;;;;;;5095191;28;19908;-70
2023/08/24 12:30:50;;;;;;;;;;;35.90;94.00;;;;;;5113774;28;19908;-70
2023/08/24 12:33:22;;;;;;;;;;;35.70;94.00;;;;;;5114025;28;19914;-70
2023/08/24 12:35:49;;;;;;;;;;;35.70;93.90;;;;;;5094954;28;19930;-72
2023/08/24 12:38:15;;;;;;;;;;;35.90;93.80;;;;;;5113456;28;20388;-70
2023/08/24 12:40:40;;;;;;;;;;;35.70;93.90;;;;;;5113699;28;19965;-71
2023/08/24 12:43:06;;;;;;;;;;;35.60;94.20;;;;;;5120677;28;19999;-70
2023/08/24 12:45:32;;;;;;;;;;;35.80;94.70;;;;;;5120453;28;20386;-70
2023/08/24 12:47:58;;;;;;;;;;;35.90;94.70;;;;;;5120289;28;19953;-71
2023/08/24 12:50:23;;;;;;;;;;;35.60;95.10;;;;;;5120737;28;20293;-70
2023/08/24 12:52:55;;;;;;;;;;;35.40;95.20;;;;;;5119848;28;19908;-70
2023/08/24 12:55:21;;;;;;;;;;;35.40;95.60;;;;;;5120323;28;19915;-70
2023/08/24 12:57:46;;;;;;;;;;;35.50;96.10;;;;;;5120496;28;19915;-71
2023/08/24 13:00:12;;;;;;;;;;;35.60;95.40;;;;;;5120304;28;20359;-71
2023/08/24 13:02:38;;;;;;;;;;;35.50;95.30;;;;;;5120172;28;20009;-71
2023/08/24 13:05:05;;;;;;;;;;;35.60;95.40;;;;;;5120126;28;20348;-71
2023/08/24 13:07:31;;;;;;;;;;;35.40;95.80;;;;;;5119709;28;19908;-71
2023/08/24 13:09:57;;;;;;;;;;;35.70;95.40;;;;;;5120614;28;20217;-70
2023/08/24 13:12:24;;;;;;;;;;;35.50;95.10;;;;;;5101603;28;20312;-71
2023/08/24 13:14:50;;;;;;;;;;;35.60;95.20;;;;;;5119965;28;19915;-71
2023/08/24 13:17:16;;;;;;;;;;;35.60;94.80;;;;;;5120446;28;19908;-70
2023/08/24 13:19:42;;;;;;;;;;;35.50;94.40;;;;;;5119882;28;19912;-70
2023/08/24 13:22:08;;;;;;;;;;;35.60;93.90;;;;;;5119692;28;20032;-70
2023/08/24 13:24:34;;;;;;;;;;;35.60;93.90;;;;;;5120510;28;19918;-70
2023/08/24 13:27:00;;;;;;;;;;;35.70;94.00;;;;;;5120086;28;20331;-70
2023/08/24 13:29:26;;;;;;;;;;;35.90;94.00;;;;;;5119894;28;20018;-70
2023/08/24 13:31:52;;;;;;;;;;;35.50;94.00;;;;;;5119805;28;19957;-70
2023/08/24 13:34:18;;;;;;;;;;;35.60;94.30;;;;;;5119566;28;19908;-70
2023/08/24 13:36:44;;;;;;;;;;;35.70;93.80;;;;;;5101111;28;20038;-72
2023/08/24 13:39:10;;;;;;;;;;;35.40;93.60;;;;;;5119670;28;19938;-71
2023/08/24 13:41:37;;;;;;;;;;;35.30;94.00;;;;;;5119436;28;19915;-71
2023/08/24 13:44:02;;;;;;;;;;;35.20;94.40;;;;;;5119868;28;19943;-71
2023/08/24 13:46:28;;;;;;;;;;;35.20;94.10;;;;;;5120078;28;19966;-71
2023/08/24 13:48:54;;;;;;;;;;;35.10;94.00;;;;;;5119793;28;20012;-71
2023/08/24 13:51:20;;;;;;;;;;;35.20;94.10;;;;;;5120004;28;19912;-71
2023/08/24 13:53:47;;;;;;;;;;;35.00;94.60;;;;;;5098273;28;20351;-71
2023/08/24 13:56:12;;;;;;;;;;;35.00;94.70;;;;;;5098118;28;19908;-71
2023/08/24 13:58:38;;;;;;;;;;;35.10;94.40;;;;;;5116547;28;19953;-71
2023/08/24 14:01:04;;;;;;;;;;;34.90;94.80;;;;;;5116324;28;19955;-71
2023/08/24 14:03:30;;;;;;;;;;;34.80;95.00;;;;;;5116431;28;19918;-71
2023/08/24 14:05:56;;;;;;;;;;;35.10;94.80;;;;;;5116447;28;20343;-72
2023/08/24 14:08:22;;;;;;;;;;;35.20;94.70;;;;;;5116005;28;19907;-70
2023/08/24 14:10:48;;;;;;;;;;;35.20;94.60;;;;;;5116258;28;19914;-72
2023/08/24 14:13:15;;;;;;;;;;;35.00;94.50;;;;;;5116583;28;19961;-71
2023/08/24 14:15:41;;;;;;;;;;;34.70;95.20;;;;;;5116062;28;19995;-71